Time;durP1;ratioP1;P1;durP2;ratioP2;P2;SDS_P1;SDS_P2;PMS_P1;PMS_P2;Temp;Humidity;BMP_temperature;BMP_pressure;BME280_temperature;BME280_humidity;BME280_pressure;Samples;Min_cycle;Max_cycle;Signal;HPM_P1;HPM_P2
2022/07/20 00:01:35;;;;;;;18.67;3.17;;;;;;;21.40;52.08;100765.75;5031643;28;20163;-71
2022/07/20 00:04:00;;;;;;;10.95;2.83;;;;;;;21.37;52.56;100765.28;5049048;28;20040;-72
2022/07/20 00:06:26;;;;;;;11.27;2.60;;;;;;;21.27;52.87;100759.31;5048990;28;20693;-73
2022/07/20 00:11:35;;;;;;;14.38;3.63;;;;;;;21.23;52.75;100761.59;5049041;28;20079;-72
2022/07/20 00:14:03;;;;;;;19.75;3.33;;;;;;;21.24;52.93;100765.13;5048697;28;20690;-73
2022/07/20 00:16:31;;;;;;;15.63;2.83;;;;;;;21.18;53.29;100763.22;5048926;28;20494;-72
2022/07/20 00:18:58;;;;;;;11.77;3.17;;;;;;;21.16;53.07;100763.41;5050093;28;20035;-72
2022/07/20 00:21:23;;;;;;;23.42;3.15;;;;;;;21.16;53.19;100757.09;5034516;28;20029;-72
2022/07/20 00:23:50;;;;;;;10.63;2.92;;;;;;;21.16;53.66;100763.41;5052425;28;20083;-72
2022/07/20 00:26:15;;;;;;;18.73;3.10;;;;;;;21.16;54.04;100765.28;5052235;28;20435;-72
2022/07/20 00:28:41;;;;;;;11.13;3.17;;;;;;;21.14;54.14;100764.59;5034131;28;20028;-74
2022/07/20 00:31:06;;;;;;;13.73;3.20;;;;;;;21.09;54.36;100757.00;5034427;28;20057;-72
2022/07/20 00:33:32;;;;;;;18.20;3.15;;;;;;;21.09;54.69;100770.63;5052279;28;20425;-73
2022/07/20 00:35:58;;;;;;;14.55;2.67;;;;;;;21.01;54.85;100761.72;5051952;28;20044;-72
2022/07/20 00:38:24;;;;;;;11.40;3.25;;;;;;;21.03;54.57;100770.56;5051993;28;20530;-73
2022/07/20 00:40:49;;;;;;;17.52;3.00;;;;;;;21.02;55.35;100774.34;5052114;28;20052;-72
2022/07/20 00:43:15;;;;;;;12.73;3.70;;;;;;;20.94;55.61;100768.97;5051940;28;20060;-72
2022/07/20 00:45:40;;;;;;;11.43;3.42;;;;;;;20.97;56.07;100768.59;5052054;28;20025;-73
2022/07/20 00:48:06;;;;;;;16.73;3.17;;;;;;;20.97;55.94;100780.38;5033933;28;20029;-73
2022/07/20 00:50:31;;;;;;;12.25;3.30;;;;;;;20.95;55.56;100773.38;5052167;28;20123;-74
2022/07/20 00:52:59;;;;;;;10.45;3.13;;;;;;;20.89;55.33;100776.88;5033995;28;20035;-72
2022/07/20 00:55:24;;;;;;;14.07;3.33;;;;;;;20.82;55.54;100774.03;5051839;28;20051;-73
2022/07/20 00:57:50;;;;;;;8.45;2.75;;;;;;;20.77;55.80;100770.19;5051730;28;20037;-73
2022/07/20 01:00:15;;;;;;;11.77;3.17;;;;;;;20.71;55.80;100779.97;5051782;28;20024;-73
2022/07/20 01:02:42;;;;;;;12.10;3.38;;;;;;;20.65;55.33;100783.44;5051812;28;20065;-73
2022/07/20 01:05:13;;;;;;;11.88;2.97;;;;;;;20.43;55.56;100764.44;5033887;28;20131;-73
2022/07/20 01:07:44;;;;;;;13.20;3.35;;;;;;;20.45;56.05;100778.75;5052118;28;20028;-73
2022/07/20 01:10:10;;;;;;;12.82;3.35;;;;;;;20.41;55.81;100778.25;5051450;28;20025;-72
2022/07/20 01:12:43;;;;;;;13.38;2.60;;;;;;;20.34;55.96;100780.03;5033487;28;20043;-72
2022/07/20 01:15:09;;;;;;;14.40;3.67;;;;;;;20.30;56.18;100778.72;5051562;28;20028;-72
2022/07/20 01:17:35;;;;;;;12.65;2.83;;;;;;;20.26;56.30;100780.13;5051473;28;20726;-72
2022/07/20 01:20:00;;;;;;;9.93;2.78;;;;;;;20.10;56.67;100758.47;5051239;28;20090;-72
2022/07/20 01:22:26;;;;;;;17.08;3.33;;;;;;;20.12;56.76;100773.63;5051306;28;20071;-73
2022/07/20 01:24:51;;;;;;;10.75;2.88;;;;;;;20.06;57.28;100766.16;5051332;28;20025;-73
2022/07/20 01:27:17;;;;;;;11.68;2.63;;;;;;;20.01;57.44;100757.72;5051224;28;20029;-73
2022/07/20 01:29:42;;;;;;;11.10;3.13;;;;;;;19.98;57.46;100760.78;5050868;28;20025;-73
2022/07/20 01:32:08;;;;;;;13.07;3.13;;;;;;;20.01;57.84;100773.19;5051224;28;20035;-74
2022/07/20 01:34:33;;;;;;;10.30;2.90;;;;;;;19.91;57.96;100750.81;5051080;28;20120;-73
2022/07/20 01:36:59;;;;;;;9.90;3.20;;;;;;;19.97;57.80;100775.44;5050734;28;20048;-74
2022/07/20 01:39:25;;;;;;;9.63;2.75;;;;;;;19.80;58.18;100740.38;5051089;28;20064;-72
2022/07/20 01:41:53;;;;;;;10.13;2.88;;;;;;;19.90;58.12;100763.56;5050841;28;20392;-73
2022/07/20 01:44:22;;;;;;;10.30;2.88;;;;;;;19.88;58.12;100762.94;5051097;28;20028;-73
2022/07/20 01:46:51;;;;;;;10.02;3.28;;;;;;;19.79;58.07;100760.44;5050856;28;20348;-74
2022/07/20 01:49:18;;;;;;;12.90;2.67;;;;;;;19.59;58.68;100727.44;5050797;28;20017;-73
2022/07/20 01:51:44;;;;;;;6.60;2.63;;;;;;;19.75;58.68;100759.97;5050752;28;20031;-72
2022/07/20 01:54:11;;;;;;;11.32;3.30;;;;;;;19.76;58.44;100763.53;5050836;28;20599;-74
2022/07/20 01:56:40;;;;;;;10.80;3.25;;;;;;;19.70;58.80;100756.13;5050919;28;20028;-72
2022/07/20 01:59:06;;;;;;;8.25;3.08;;;;;;;19.68;59.14;100764.47;5050428;28;20053;-72
2022/07/20 02:01:31;;;;;;;11.95;3.15;;;;;;;19.58;59.22;100754.84;5050824;28;20350;-73
2022/07/20 02:03:56;;;;;;;13.60;3.17;;;;;;;19.62;59.41;100764.34;5032903;28;20037;-72
2022/07/20 02:06:22;;;;;;;11.25;3.40;;;;;;;19.52;59.25;100758.28;5050512;28;20537;-72
2022/07/20 02:08:47;;;;;;;14.10;3.22;;;;;;;19.53;59.41;100766.28;5050454;28;20024;-73
2022/07/20 02:11:13;;;;;;;11.23;3.25;;;;;;;19.53;59.73;100766.28;5050464;28;20024;-74
2022/07/20 02:13:38;;;;;;;11.23;2.92;;;;;;;19.45;59.86;100766.31;5032456;28;20047;-72
2022/07/20 02:16:16;;;;;;;15.18;2.97;;;;;;;19.29;60.25;100736.53;5050404;28;20036;-73
2022/07/20 02:18:46;;;;;;;10.02;2.72;;;;;;;19.43;60.14;100767.53;5050391;28;20064;-72
2022/07/20 02:21:13;;;;;;;9.75;2.90;;;;;;;19.39;60.54;100760.75;5050525;28;20045;-74
2022/07/20 02:23:39;;;;;;;5.75;3.00;;;;;;;19.37;60.68;100770.97;5050346;28;20059;-73
2022/07/20 02:26:04;;;;;;;8.98;2.83;;;;;;;19.35;61.03;100767.59;5050202;28;20053;-74
2022/07/20 02:28:30;;;;;;;11.77;3.17;;;;;;;19.32;61.41;100762.53;5050266;28;20025;-73
2022/07/20 02:30:55;;;;;;;11.57;3.50;;;;;;;19.31;61.47;100761.66;5050480;28;20036;-74
2022/07/20 02:33:21;;;;;;;11.18;3.20;;;;;;;19.31;61.40;100761.66;5032212;28;20037;-73
2022/07/20 02:35:47;;;;;;;10.05;3.65;;;;;;;19.29;61.34;100761.00;5049971;28;20041;-73
2022/07/20 02:38:12;;;;;;;10.80;3.10;;;;;;;19.26;61.35;100769.53;5049893;28;20024;-73
2022/07/20 02:40:37;;;;;;;13.77;3.67;;;;;;;19.22;61.96;100767.31;5031943;28;20025;-73
2022/07/20 02:43:03;;;;;;;14.88;3.22;;;;;;;19.16;61.98;100766.16;5049120;28;20342;-73
2022/07/20 02:45:29;;;;;;;10.93;3.15;;;;;;;19.12;62.00;100762.09;5049921;28;20029;-72
2022/07/20 02:47:58;;;;;;;13.18;3.78;;;;;;;19.02;62.18;100753.31;5049883;28;20020;-74
2022/07/20 02:50:23;;;;;;;8.75;2.97;;;;;;;19.02;62.43;100766.06;5049669;28;20028;-73
2022/07/20 02:52:49;;;;;;;10.35;3.38;;;;;;;18.98;62.37;100770.16;5049624;28;20725;-73
2022/07/20 02:55:14;;;;;;;6.18;2.75;;;;;;;18.98;62.48;100773.72;5049753;28;20025;-72
2022/07/20 02:57:40;;;;;;;15.85;2.88;;;;;;;18.96;63.11;100769.50;5031499;28;20091;-72
2022/07/20 03:00:08;;;;;;;9.77;3.40;;;;;;;18.87;63.24;100768.69;5049132;28;20044;-73
2022/07/20 03:02:33;;;;;;;9.23;3.30;;;;;;;18.88;63.48;100778.53;5049604;28;20028;-72
2022/07/20 03:04:59;;;;;;;13.80;3.30;;;;;;;18.84;63.46;100774.47;5049719;28;20037;-73
2022/07/20 03:07:24;;;;;;;13.43;3.40;;;;;;;18.82;63.85;100776.50;5031676;28;20037;-73
2022/07/20 03:09:50;;;;;;;11.98;4.55;;;;;;;18.78;64.74;100769.75;5049585;28;20029;-73
2022/07/20 03:12:15;;;;;;;16.75;3.85;;;;;;;18.75;64.83;100763.78;5032745;28;20030;-73
2022/07/20 03:14:40;;;;;;;18.35;4.25;;;;;;;18.74;64.86;100771.13;5030204;28;20105;-74
2022/07/20 03:17:06;;;;;;;14.25;4.00;;;;;;;18.75;64.20;100769.22;5020141;28;20045;-74
2022/07/20 03:19:31;;;;;;;11.30;3.15;;;;;;;18.83;64.10;100782.81;5019560;28;20034;-73
2022/07/20 03:21:57;;;;;;;13.00;3.88;;;;;;;18.73;63.89;100771.31;5000704;28;20045;-74
2022/07/20 03:24:22;;;;;;;9.38;2.88;;;;;;;18.77;64.15;100786.22;5018614;28;20108;-73
2022/07/20 03:26:48;;;;;;;9.02;3.35;;;;;;;18.74;63.98;100779.28;5017486;28;20022;-73
2022/07/20 03:29:13;;;;;;;10.82;3.10;;;;;;;18.70;63.98;100783.34;5020610;28;20051;-73
2022/07/20 03:31:38;;;;;;;8.20;2.50;;;;;;;18.54;64.21;100756.22;5018168;28;20048;-73
2022/07/20 03:34:04;;;;;;;13.63;3.72;;;;;;;18.63;64.22;100781.53;5019279;28;20037;-74
2022/07/20 03:36:29;;;;;;;11.13;3.42;;;;;;;18.67;64.46;100789.13;5017850;28;20046;-73
2022/07/20 03:38:55;;;;;;;12.80;3.58;;;;;;;18.63;64.72;100793.22;5017948;28;20033;-73
2022/07/20 03:41:20;;;;;;;11.23;3.22;;;;;;;18.61;64.72;100781.72;5001082;28;20026;-72
2022/07/20 03:43:46;;;;;;;12.55;3.08;;;;;;;18.63;64.72;100781.53;5015366;28;20032;-73
2022/07/20 03:46:11;;;;;;;8.80;3.20;;;;;;;18.61;64.73;100784.41;5019839;28;20036;-73
2022/07/20 03:48:37;;;;;;;16.73;3.55;;;;;;;18.64;65.37;100780.50;5018415;28;20763;-73
2022/07/20 03:51:03;;;;;;;13.43;3.40;;;;;;;18.71;65.09;100797.78;5019609;28;20108;-72
2022/07/20 03:53:29;;;;;;;15.80;3.63;;;;;;;18.79;65.21;100795.88;5004222;28;20022;-74
2022/07/20 03:55:54;;;;;;;13.80;3.00;;;;;;;18.83;65.48;100783.63;5030259;28;20033;-72
2022/07/20 03:58:20;;;;;;;27.13;4.40;;;;;;;18.90;65.13;100790.09;5015143;28;20071;-73
2022/07/20 04:00:45;;;;;;;29.42;5.13;;;;;;;19.06;65.12;100794.59;5033087;28;20033;-73
2022/07/20 04:03:11;;;;;;;26.15;4.55;;;;;;;19.13;64.73;100787.41;5032835;28;20041;-74
2022/07/20 04:05:36;;;;;;;24.35;3.80;;;;;;;19.28;64.53;100796.56;5033073;28;20049;-73
2022/07/20 04:08:02;;;;;;;7.10;3.40;;;;;;;19.41;64.56;100794.09;5033058;28;20037;-73
2022/07/20 04:10:27;;;;;;;16.27;4.13;;;;;;;19.51;63.62;100783.81;5032851;28;20072;-73
2022/07/20 04:12:53;;;;;;;17.20;4.80;;;;;;;19.76;63.28;100804.38;5032768;28;20837;-73
2022/07/20 04:15:18;;;;;;;15.82;3.35;;;;;;;19.93;62.28;100806.78;5032605;28;20136;-72
2022/07/20 04:17:44;;;;;;;21.13;4.47;;;;;;;20.09;61.86;100803.09;5032640;28;20025;-73
2022/07/20 04:20:10;;;;;;;22.23;4.43;;;;;;;20.17;61.83;100801.16;5032553;28;20099;-72
2022/07/20 04:22:35;;;;;;;20.08;4.25;;;;;;;20.32;61.99;100803.06;5032619;28;20038;-73
2022/07/20 04:25:01;;;;;;;27.08;5.43;;;;;;;20.53;61.19;100809.47;5032625;28;20495;-74
2022/07/20 04:27:26;;;;;;;16.70;4.38;;;;;;;20.48;61.92;100784.69;5032578;28;20049;-72
2022/07/20 04:29:52;;;;;;;17.77;4.18;;;;;;;20.62;63.84;100785.69;5032381;28;20079;-72
2022/07/20 04:32:17;;;;;;;18.92;4.32;;;;;;;20.94;64.59;100813.47;5032352;28;20491;-72
2022/07/20 04:34:42;;;;;;;16.60;3.88;;;;;;;21.02;65.04;100798.88;5032506;28;20035;-73
2022/07/20 04:37:08;;;;;;;9.52;3.60;;;;;;;21.18;64.17;100813.16;5032204;28;20120;-72
2022/07/20 04:39:34;;;;;;;10.85;3.80;;;;;;;21.25;63.02;100800.41;5032404;28;20111;-73
2022/07/20 04:41:59;;;;;;;18.15;4.10;;;;;;;21.46;62.31;100814.13;5032159;28;20036;-73
2022/07/20 04:44:25;;;;;;;20.10;4.43;;;;;;;21.58;61.60;100803.53;5032397;28;20087;-72
2022/07/20 04:46:50;;;;;;;14.52;4.18;;;;;;;21.76;60.52;100812.16;5031883;28;20087;-72
2022/07/20 04:49:16;;;;;;;13.35;3.80;;;;;;;21.92;59.36;100822.81;5032254;28;20112;-73
2022/07/20 04:51:42;;;;;;;17.33;4.50;;;;;;;22.05;58.90;100812.00;5014402;28;20029;-73
2022/07/20 04:54:07;;;;;;;13.43;3.95;;;;;;;22.21;56.73;100819.94;5030996;28;20029;-73
2022/07/20 04:56:33;;;;;;;13.10;3.97;;;;;;;22.33;55.60;100818.34;5032463;28;20040;-72
2022/07/20 04:58:58;;;;;;;18.52;4.00;;;;;;;22.48;54.30;100821.00;5031884;28;20076;-72
2022/07/20 05:01:24;;;;;;;6.55;2.85;;;;;;;22.68;51.61;100822.00;5031952;28;20520;-72
2022/07/20 05:03:50;;;;;;;10.27;3.40;;;;;;;22.66;50.17;100797.59;5031601;28;20468;-71
2022/07/20 05:06:16;;;;;;;7.05;2.92;;;;;;;22.93;50.28;100824.06;5030109;28;20503;-73
2022/07/20 05:08:42;;;;;;;9.93;3.03;;;;;;;23.14;49.76;100832.16;5031711;28;20029;-72
2022/07/20 05:11:08;;;;;;;16.45;4.22;;;;;;;23.21;49.10;100815.78;5013698;28;20040;-73
2022/07/20 05:13:33;;;;;;;10.25;3.17;;;;;;;23.42;48.31;100827.50;5030372;28;20029;-72
2022/07/20 05:15:59;;;;;;;15.48;4.32;;;;;;;23.63;48.40;100824.59;5031569;28;20111;-72
2022/07/20 05:18:24;;;;;;;17.70;4.35;;;;;;;23.74;47.81;100821.25;5031564;28;20468;-72
2022/07/20 05:20:50;;;;;;;13.80;3.70;;;;;;;23.89;46.41;100819.16;5013951;28;20502;-71
2022/07/20 05:23:15;;;;;;;11.75;3.28;;;;;;;24.00;45.35;100832.31;5031861;28;20057;-71
2022/07/20 05:25:41;;;;;;;16.50;4.05;;;;;;;24.13;44.82;100825.97;5031488;28;20044;-72
2022/07/20 05:28:06;;;;;;;13.07;4.13;;;;;;;24.25;44.85;100829.78;5013505;28;20700;-73
2022/07/20 05:30:32;;;;;;;18.92;4.45;;;;;;;24.19;44.77;100795.81;5031237;28;20061;-72
2022/07/20 05:32:57;;;;;;;18.48;4.53;;;;;;;24.51;44.70;100817.94;5031355;28;20531;-72
2022/07/20 05:35:23;;;;;;;13.57;4.40;;;;;;;24.66;44.74;100821.34;5013542;28;20071;-72
2022/07/20 05:37:48;;;;;;;16.42;4.20;;;;;;;24.81;44.82;100819.19;5031140;28;20106;-73
2022/07/20 05:40:14;;;;;;;17.15;4.60;;;;;;;24.96;45.05;100819.78;5031255;28;20053;-72
2022/07/20 05:42:39;;;;;;;10.30;3.70;;;;;;;25.13;44.89;100816.38;5031027;28;20048;-72
2022/07/20 05:45:05;;;;;;;17.45;4.53;;;;;;;25.30;42.85;100817.56;5031136;28;20047;-71
2022/07/20 05:47:31;;;;;;;9.35;4.15;;;;;;;25.47;42.71;100826.19;5031144;28;20025;-73
2022/07/20 05:49:57;;;;;;;10.95;4.00;;;;;;;25.66;42.91;100814.25;5030942;28;20037;-72
2022/07/20 05:52:23;;;;;;;17.17;4.05;;;;;;;25.81;42.59;100818.38;5013207;28;20021;-73
2022/07/20 05:54:48;;;;;;;12.48;3.95;;;;;;;25.98;41.36;100821.44;5031210;28;20033;-72
2022/07/20 05:57:14;;;;;;;16.50;3.95;;;;;;;26.14;41.00;100815.41;5030951;28;20025;-73
2022/07/20 05:59:40;;;;;;;14.68;3.95;;;;;;;26.29;40.63;100822.28;5030735;28;20045;-73
2022/07/20 06:02:06;;;;;;;7.97;3.70;;;;;;;26.46;40.69;100812.38;5030966;28;20029;-73
2022/07/20 06:04:32;;;;;;;11.23;3.28;;;;;;;26.70;38.38;100816.22;5030957;28;20028;-73
2022/07/20 06:06:57;;;;;;;15.50;3.47;;;;;;;26.84;37.90;100817.75;5013223;28;20535;-73
2022/07/20 06:09:22;;;;;;;10.43;3.35;;;;;;;27.08;38.21;100833.34;5030856;28;20053;-73
2022/07/20 06:11:48;;;;;;;18.42;3.70;;;;;;;27.19;37.67;100824.34;5030892;28;20030;-73
2022/07/20 06:14:13;;;;;;;7.47;3.10;;;;;;;27.30;36.62;100807.06;5030234;28;20037;-72
2022/07/20 06:16:39;;;;;;;11.77;3.58;;;;;;;27.60;36.53;100818.94;5029555;28;20033;-72
2022/07/20 06:19:04;;;;;;;11.20;3.90;;;;;;;27.75;36.61;100815.78;5030496;28;20066;-73
2022/07/20 06:21:30;;;;;;;15.60;4.13;;;;;;;28.00;36.21;100810.97;5030160;28;20028;-73
2022/07/20 06:23:55;;;;;;;11.80;3.55;;;;;;;28.21;36.16;100816.78;5030229;28;20040;-72
2022/07/20 06:26:22;;;;;;;13.20;4.40;;;;;;;28.38;35.50;100816.94;5030138;28;20033;-73
2022/07/20 06:28:48;;;;;;;13.57;4.47;;;;;;;28.48;34.95;100809.78;5029089;28;20028;-72
2022/07/20 06:31:13;;;;;;;15.60;4.43;;;;;;;28.62;34.27;100813.13;5029872;28;20025;-73
2022/07/20 06:33:39;;;;;;;13.98;3.47;;;;;;;28.70;33.47;100809.16;5030200;28;20036;-73
2022/07/20 06:36:04;;;;;;;14.18;3.85;;;;;;;28.81;34.06;100813.84;5030278;28;20530;-73
2022/07/20 06:38:30;;;;;;;8.80;3.67;;;;;;;28.92;34.01;100794.47;5029975;28;20037;-72
2022/07/20 06:40:55;;;;;;;11.40;3.85;;;;;;;29.16;34.06;100806.38;5030122;28;20175;-65
2022/07/20 06:43:23;;;;;;;11.75;3.85;;;;;;;29.37;34.10;100817.59;5030084;28;20036;-64
2022/07/20 06:45:49;;;;;;;17.80;4.00;;;;;;;29.60;33.86;100813.94;5030231;28;20061;-63
2022/07/20 06:48:15;;;;;;;13.13;3.42;;;;;;;29.80;33.24;100814.34;5029872;28;20018;-64
2022/07/20 06:50:41;;;;;;;16.00;3.53;;;;;;;29.93;33.32;100814.88;5030253;28;20083;-65
2022/07/20 06:53:06;;;;;;;16.02;4.20;;;;;;;30.05;33.48;100818.41;5033647;28;20028;-66
2022/07/20 06:55:32;;;;;;;17.85;4.63;;;;;;;30.15;32.56;100817.75;5015802;28;20476;-65
2022/07/20 06:57:57;;;;;;;16.08;3.85;;;;;;;30.29;31.75;100821.91;5043574;28;20049;-65
2022/07/20 07:00:23;;;;;;;9.43;2.80;;;;;;;30.44;31.60;100820.22;5049825;28;20635;-65
2022/07/20 07:02:49;;;;;;;16.42;3.33;;;;;;;30.52;31.43;100817.06;5049899;28;20116;-65
2022/07/20 07:05:14;;;;;;;15.30;2.90;;;;;;;30.60;31.29;100824.91;5038564;28;20033;-64
2022/07/20 07:07:40;;;;;;;15.07;2.70;;;;;;;30.58;30.57;100810.50;5033510;28;20044;-65
2022/07/20 07:10:06;;;;;;;14.75;2.38;;;;;;;30.74;29.72;100819.06;5046808;28;20479;-64
2022/07/20 07:12:32;;;;;;;11.10;2.35;;;;;;;30.88;29.73;100823.16;5031463;28;20651;-66
2022/07/20 07:14:57;;;;;;;9.82;2.50;;;;;;;31.01;29.73;100823.63;5031806;28;20036;-65
2022/07/20 07:17:23;;;;;;;11.88;1.90;;;;;;;31.03;28.05;100804.81;5031814;28;20542;-65
2022/07/20 07:19:48;;;;;;;10.90;2.35;;;;;;;31.15;27.87;100810.22;5049859;28;20025;-65
2022/07/20 07:22:14;;;;;;;8.80;1.80;;;;;;;31.37;28.49;100816.66;5049717;28;20032;-73
2022/07/20 07:24:39;;;;;;;9.50;2.83;;;;;;;31.51;29.34;100818.78;5049602;28;20020;-73
2022/07/20 07:27:05;;;;;;;15.20;2.67;;;;;;;31.63;29.00;100822.22;5049368;28;20029;-73
2022/07/20 07:29:30;;;;;;;9.05;2.53;;;;;;;31.70;28.98;100810.94;5053387;28;20100;-72
2022/07/20 07:31:58;;;;;;;10.00;2.20;;;;;;;31.82;28.66;100818.03;5053463;28;20061;-73
2022/07/20 07:34:33;;;;;;;8.05;2.28;;;;;;;31.93;28.78;100814.28;5053475;28;20027;-73
2022/07/20 07:36:58;;;;;;;13.32;2.53;;;;;;;32.02;28.99;100812.69;5053373;28;20360;-73
2022/07/20 07:39:24;;;;;;;13.13;2.70;;;;;;;32.06;29.34;100808.31;5053288;28;20095;-73
2022/07/20 07:41:49;;;;;;;9.10;2.83;;;;;;;32.18;29.30;100800.63;5053180;28;20025;-73
2022/07/20 07:44:14;;;;;;;13.80;3.00;;;;;;;32.27;29.35;100810.16;5053032;28;20029;-72
2022/07/20 07:46:40;;;;;;;13.77;2.83;;;;;;;32.36;29.32;100804.97;5053182;28;20498;-72
2022/07/20 07:49:06;;;;;;;10.90;2.60;;;;;;;32.34;28.48;100791.34;5053206;28;20701;-72
2022/07/20 07:51:32;;;;;;;11.60;2.28;;;;;;;32.57;28.18;100804.03;5053048;28;20104;-72
2022/07/20 07:53:58;;;;;;;7.18;2.08;;;;;;;32.69;27.65;100801.06;5052826;28;20115;-73
2022/07/20 07:56:23;;;;;;;10.45;2.40;;;;;;;32.77;27.70;100804.16;5035541;28;20055;-73
2022/07/20 07:58:49;;;;;;;11.07;2.30;;;;;;;32.91;27.65;100810.13;5034994;28;20084;-73
2022/07/20 08:01:14;;;;;;;10.93;2.10;;;;;;;32.95;27.72;100806.56;5034796;28;20031;-72
2022/07/20 08:03:40;;;;;;;7.13;1.92;;;;;;;32.98;27.02;100807.94;5052945;28;20480;-73
2022/07/20 08:06:06;;;;;;;8.57;1.90;;;;;;;33.06;26.82;100804.63;5052983;28;20040;-73
2022/07/20 08:08:32;;;;;;;8.32;1.85;;;;;;;33.09;26.57;100787.41;5052724;28;20479;-73
2022/07/20 08:10:58;;;;;;;10.00;2.13;;;;;;;33.26;26.69;100801.94;5052613;28;20035;-72
2022/07/20 08:13:24;;;;;;;3.47;1.85;;;;;;;33.35;26.20;100795.59;5052524;28;20104;-73
2022/07/20 08:15:50;;;;;;;6.90;2.00;;;;;;;33.48;26.51;100786.78;5052830;28;20428;-73
2022/07/20 08:18:16;;;;;;;5.97;1.58;;;;;;;33.57;26.12;100790.72;5052665;28;20027;-72
2022/07/20 08:20:42;;;;;;;5.93;1.85;;;;;;;33.67;25.49;100792.69;5034618;28;20463;-73
2022/07/20 08:23:08;;;;;;;7.35;1.65;;;;;;;33.78;26.01;100789.63;5052596;28;20090;-72
2022/07/20 08:25:33;;;;;;;5.13;1.73;;;;;;;33.88;25.76;100794.44;5052558;28;20491;-72
2022/07/20 08:28:14;;;;;;;5.75;1.40;;;;;;;33.99;25.06;100776.63;5052456;28;20017;-73
2022/07/20 08:30:41;;;;;;;5.07;1.48;;;;;;;34.12;24.68;100787.22;5052520;28;20081;-72
2022/07/20 08:33:07;;;;;;;4.50;1.25;;;;;;;34.19;23.95;100773.84;5052399;28;20032;-73
2022/07/20 08:35:33;;;;;;;6.65;1.80;;;;;;;34.19;23.76;100771.06;5052407;28;20045;-73
2022/07/20 08:37:58;;;;;;;4.68;1.52;;;;;;;34.29;23.60;100776.63;5052039;28;20079;-73
2022/07/20 08:40:25;;;;;;;3.30;1.20;;;;;;;34.28;23.20;100781.38;5051078;28;20049;-73
2022/07/20 08:42:50;;;;;;;5.68;1.40;;;;;;;34.35;22.82;100778.31;5052126;28;20044;-73
2022/07/20 08:45:16;;;;;;;8.95;1.73;;;;;;;34.41;23.22;100777.22;5051957;28;20052;-73
2022/07/20 08:47:44;;;;;;;3.00;1.42;;;;;;;34.51;22.74;100778.03;5052072;28;20036;-73
2022/07/20 08:50:10;;;;;;;5.57;1.17;;;;;;;34.55;22.07;100776.34;5051870;28;20395;-72
2022/07/20 08:52:36;;;;;;;2.72;1.30;;;;;;;34.52;22.27;100781.63;5033946;28;20036;-73
2022/07/20 08:55:02;;;;;;;5.65;1.48;;;;;;;34.55;22.90;100778.28;5051633;28;20060;-72
2022/07/20 08:57:30;;;;;;;4.88;1.52;;;;;;;34.50;22.48;100761.59;5031459;28;20492;-72
2022/07/20 08:59:56;;;;;;;3.67;1.42;;;;;;;34.52;22.63;100756.56;5031950;28;20037;-73
2022/07/20 09:02:21;;;;;;;4.50;1.35;;;;;;;34.62;22.70;100767.69;5031976;28;20466;-73
2022/07/20 09:04:52;;;;;;;6.43;1.60;;;;;;;34.69;22.36;100768.25;5014119;28;20768;-73
2022/07/20 09:07:36;;;;;;;6.93;1.35;;;;;;;34.71;22.48;100773.56;5031655;28;20124;-73
2022/07/20 09:10:04;;;;;;;6.00;1.50;;;;;;;34.63;22.54;100749.88;5030553;28;20038;-72
2022/07/20 09:12:29;;;;;;;3.25;1.52;;;;;;;34.80;22.65;100755.09;5031390;28;20057;-73
2022/07/20 09:14:55;;;;;;;5.30;1.38;;;;;;;34.77;22.58;100747.31;5031462;28;20779;-74
2022/07/20 09:17:23;;;;;;;5.90;2.10;;;;;;;34.93;22.68;100757.31;5031421;28;20036;-73
2022/07/20 09:19:56;;;;;;;3.65;1.67;;;;;;;34.95;22.37;100760.69;5031472;28;20115;-73
2022/07/20 09:22:39;;;;;;;2.70;1.40;;;;;;;34.98;22.84;100752.56;5030930;28;20029;-73
2022/07/20 09:25:07;;;;;;;3.25;1.42;;;;;;;35.02;22.57;100756.47;5031603;28;20128;-73
2022/07/20 09:27:33;;;;;;;5.43;1.60;;;;;;;34.99;22.05;100747.81;5031109;28;20026;-73
2022/07/20 09:30:11;;;;;;;3.22;1.35;;;;;;;35.01;22.54;100756.75;5012402;28;20124;-73
2022/07/20 09:33:00;;;;;;;3.50;1.52;;;;;;;35.04;22.79;100756.19;5031245;28;20025;-73
2022/07/20 09:35:34;;;;;;;6.40;1.50;;;;;;;35.13;22.48;100744.13;5013368;28;20040;-73
2022/07/20 09:38:06;;;;;;;5.65;1.25;;;;;;;35.17;22.80;100744.41;5031054;28;20111;-73
2022/07/20 09:40:42;;;;;;;5.50;1.80;;;;;;;35.18;22.76;100746.06;5030896;28;20108;-73
2022/07/20 09:43:08;;;;;;;3.85;1.70;;;;;;;35.20;22.32;100739.09;5031088;28;20026;-73
2022/07/20 09:45:33;;;;;;;3.33;1.48;;;;;;;35.16;22.44;100731.56;5031241;28;20029;-73
2022/07/20 09:48:01;;;;;;;6.32;1.73;;;;;;;35.18;22.80;100732.13;5013144;28;20514;-73
2022/07/20 09:50:32;;;;;;;3.40;1.40;;;;;;;35.23;22.36;100734.91;5013211;28;20037;-73
2022/07/20 09:52:57;;;;;;;10.18;1.70;;;;;;;35.28;22.31;100740.44;5031006;28;20029;-73
2022/07/20 09:55:24;;;;;;;2.78;1.20;;;;;;;35.30;22.21;100730.66;5030979;28;20484;-72
2022/07/20 09:57:53;;;;;;;6.32;1.35;;;;;;;35.35;22.53;100727.88;5029959;28;20093;-73
2022/07/20 10:00:20;;;;;;;4.47;1.40;;;;;;;35.45;22.67;100733.41;5029911;28;20037;-73
2022/07/20 10:02:48;;;;;;;4.38;1.45;;;;;;;35.46;22.47;100728.66;5012114;28;20033;-72
2022/07/20 10:05:16;;;;;;;2.97;1.30;;;;;;;35.58;22.51;100732.75;5029990;28;20723;-73
2022/07/20 10:07:44;;;;;;;6.00;1.58;;;;;;;35.55;22.23;100719.38;5030091;28;20029;-72
2022/07/20 10:10:09;;;;;;;5.35;1.38;;;;;;;35.63;22.00;100724.38;5030504;28;20104;-72
2022/07/20 10:12:36;;;;;;;1.60;1.50;;;;;;;35.60;21.79;100724.94;5031043;28;20556;-73
2022/07/20 10:15:07;;;;;;;4.65;1.65;;;;;;;35.57;21.65;100719.94;5030622;28;20036;-73
2022/07/20 10:17:33;;;;;;;3.92;1.60;;;;;;;35.50;21.95;100724.16;5013263;28;20079;-72
2022/07/20 10:19:59;;;;;;;2.22;1.60;;;;;;;35.48;22.01;100704.91;5030683;28;20030;-72
2022/07/20 10:22:24;;;;;;;7.95;1.98;;;;;;;35.46;22.11;100701.56;5030626;28;20432;-74
2022/07/20 10:25:12;;;;;;;3.05;1.58;;;;;;;35.50;21.94;100711.06;5030567;28;20083;-72
2022/07/20 10:27:38;;;;;;;3.00;1.50;;;;;;;35.41;22.46;100682.09;5030436;28;20091;-73
2022/07/20 10:30:17;;;;;;;3.33;1.70;;;;;;;35.61;21.91;100709.84;5030458;28;20034;-72
2022/07/20 10:32:57;;;;;;;3.05;1.88;;;;;;;35.65;21.72;100702.56;5030228;28;20029;-73
2022/07/20 10:35:31;;;;;;;5.30;1.50;;;;;;;35.63;21.72;100704.84;5030626;28;20491;-73
2022/07/20 10:37:57;;;;;;;2.25;1.80;;;;;;;35.64;21.82;100694.47;5029889;28;20507;-73
2022/07/20 10:40:28;;;;;;;1.95;1.50;;;;;;;35.65;21.84;100696.16;5029965;28;20021;-74
2022/07/20 10:43:15;;;;;;;4.40;1.63;;;;;;;35.59;22.15;100691.72;5030169;28;20033;-74
2022/07/20 10:45:42;;;;;;;4.10;1.75;;;;;;;35.69;21.65;100698.06;5029939;28;20037;-72
2022/07/20 10:48:11;;;;;;;3.67;1.85;;;;;;;35.69;21.79;100692.47;5029974;28;20475;-72
2022/07/20 10:50:37;;;;;;;7.00;1.92;;;;;;;35.68;21.71;100682.44;5029977;28;20092;-73
2022/07/20 10:53:15;;;;;;;5.00;1.80;;;;;;;35.66;21.90;100690.25;5029651;28;20464;-73
2022/07/20 10:55:50;;;;;;;5.10;1.88;;;;;;;35.65;21.84;100682.22;5029725;28;20075;-73
2022/07/20 10:58:31;;;;;;;5.43;2.17;;;;;;;35.75;21.79;100684.91;5029528;28;20042;-73
2022/07/20 11:01:05;;;;;;;3.85;1.90;;;;;;;35.75;21.68;100679.34;5029501;28;20472;-73
2022/07/20 11:03:43;;;;;;;4.15;1.63;;;;;;;35.75;21.54;100674.56;5029222;28;20026;-73
2022/07/20 11:06:13;;;;;;;4.95;1.63;;;;;;;35.74;21.95;100669.25;5029651;28;20037;-73
2022/07/20 11:08:55;;;;;;;3.05;1.70;;;;;;;35.72;21.73;100672.34;5029619;28;20369;-74
2022/07/20 11:11:26;;;;;;;3.92;1.75;;;;;;;35.74;21.90;100666.47;5029452;28;20029;-73
2022/07/20 11:13:52;;;;;;;3.67;1.92;;;;;;;35.75;22.03;100668.97;5011915;28;20033;-72
2022/07/20 11:16:23;;;;;;;2.83;1.70;;;;;;;35.74;22.12;100664.53;5029508;28;20060;-73
2022/07/20 11:18:49;;;;;;;3.45;1.75;;;;;;;35.79;21.63;100661.72;5029589;28;20030;-73
2022/07/20 11:21:15;;;;;;;4.65;1.88;;;;;;;35.75;22.07;100646.63;5029531;28;20021;-74